sensor_id;sensor_type;location;lat;lon;timestamp;pressure;altitude;pressure_sealevel;temperature;humidity
83551;BME280;74617;47.082;15.524;2024-01-30T00:00:21;98541.66;;;19.63;35.84
83551;BME280;74617;47.082;15.524;2024-01-30T00:02:46;98555.56;;;19.61;35.84
83551;BME280;74617;47.082;15.524;2024-01-30T00:05:11;98549.00;;;19.62;35.84
83551;BME280;74617;47.082;15.524;2024-01-30T00:07:37;98550.94;;;19.62;35.95
83551;BME280;74617;47.082;15.524;2024-01-30T00:10:02;98546.56;;;19.61;35.94
83551;BME280;74617;47.082;15.524;2024-01-30T00:12:28;98550.72;;;19.58;35.97
83551;BME280;74617;47.082;15.524;2024-01-30T00:14:53;98557.78;;;19.59;36.07
83551;BME280;74617;47.082;15.524;2024-01-30T00:17:19;98547.16;;;19.58;35.94
83551;BME280;74617;47.082;15.524;2024-01-30T00:19:46;98546.06;;;19.59;35.68
83551;BME280;74617;47.082;15.524;2024-01-30T00:22:11;98551.50;;;19.59;36.05
83551;BME280;74617;47.082;15.524;2024-01-30T00:24:36;98549.09;;;19.57;36.07
83551;BME280;74617;47.082;15.524;2024-01-30T00:27:02;98551.81;;;19.57;36.43
83551;BME280;74617;47.082;15.524;2024-01-30T00:29:27;98550.72;;;19.58;36.23
83551;BME280;74617;47.082;15.524;2024-01-30T00:31:55;98549.34;;;19.56;36.13
83551;BME280;74617;47.082;15.524;2024-01-30T00:34:20;98549.09;;;19.57;36.04
83551;BME280;74617;47.082;15.524;2024-01-30T00:36:46;98547.69;;;19.55;36.15
83551;BME280;74617;47.082;15.524;2024-01-30T00:39:11;98553.16;;;19.55;36.08
83551;BME280;74617;47.082;15.524;2024-01-30T00:41:37;98552.63;;;19.53;35.99
83551;BME280;74617;47.082;15.524;2024-01-30T00:44:02;98555.06;;;19.54;36.16
83551;BME280;74617;47.082;15.524;2024-01-30T00:46:27;98563.78;;;19.56;36.17
83551;BME280;74617;47.082;15.524;2024-01-30T00:48:53;98553.16;;;19.55;36.21
83551;BME280;74617;47.082;15.524;2024-01-30T00:51:18;98549.91;;;19.53;36.21
83551;BME280;74617;47.082;15.524;2024-01-30T00:53:44;98547.19;;;19.53;36.29
83551;BME280;74617;47.082;15.524;2024-01-30T00:56:10;98551.00;;;19.52;36.12
83551;BME280;74617;47.082;15.524;2024-01-30T00:58:35;98544.25;;;19.49;36.47
83551;BME280;74617;47.082;15.524;2024-01-30T01:01:00;98547.78;;;19.50;36.32
83551;BME280;74617;47.082;15.524;2024-01-30T01:03:26;98543.41;;;19.49;36.32
83551;BME280;74617;47.082;15.524;2024-01-30T01:05:51;98539.84;;;19.48;36.45
83551;BME280;74617;47.082;15.524;2024-01-30T01:08:16;98540.66;;;19.49;36.34
83551;BME280;74617;47.082;15.524;2024-01-30T01:10:43;98539.34;;;19.46;36.47
83551;BME280;74617;47.082;15.524;2024-01-30T01:13:08;98535.81;;;19.46;36.24
83551;BME280;74617;47.082;15.524;2024-01-30T01:15:33;98531.47;;;19.45;36.25
83551;BME280;74617;47.082;15.524;2024-01-30T01:17:59;98534.41;;;19.48;36.22
83551;BME280;74617;47.082;15.524;2024-01-30T01:20:24;98524.91;;;19.46;36.36
83551;BME280;74617;47.082;15.524;2024-01-30T01:22:49;98526.31;;;19.43;36.45
83551;BME280;74617;47.082;15.524;2024-01-30T01:25:15;98527.94;;;19.44;36.53
83551;BME280;74617;47.082;15.524;2024-01-30T01:27:40;98525.75;;;19.41;36.55
83551;BME280;74617;47.082;15.524;2024-01-30T01:30:10;98529.28;;;19.41;36.58
83551;BME280;74617;47.082;15.524;2024-01-30T01:32:37;98528.47;;;19.41;36.43
83551;BME280;74617;47.082;15.524;2024-01-30T01:35:03;98530.69;;;19.39;36.42
83551;BME280;74617;47.082;15.524;2024-01-30T01:37:31;98524.44;;;19.38;36.41
83551;BME280;74617;47.082;15.524;2024-01-30T01:39:56;98527.44;;;19.37;36.36
83551;BME280;74617;47.082;15.524;2024-01-30T01:42:21;98523.91;;;19.36;36.59
83551;BME280;74617;47.082;15.524;2024-01-30T01:44:47;98523.09;;;19.36;36.44
83551;BME280;74617;47.082;15.524;2024-01-30T01:47:13;98525.03;;;19.35;36.37
83551;BME280;74617;47.082;15.524;2024-01-30T01:49:38;98517.09;;;19.34;36.63
83551;BME280;74617;47.082;15.524;2024-01-30T01:52:04;98518.72;;;19.35;36.42
83551;BME280;74617;47.082;15.524;2024-01-30T01:54:30;98514.38;;;19.34;36.49
83551;BME280;74617;47.082;15.524;2024-01-30T01:56:56;98514.38;;;19.34;36.51
83551;BME280;74617;47.082;15.524;2024-01-30T01:59:22;98515.50;;;19.33;36.67
83551;BME280;74617;47.082;15.524;2024-01-30T02:01:49;98515.50;;;19.33;36.66
83551;BME280;74617;47.082;15.524;2024-01-30T02:04:15;98518.72;;;19.35;36.50
83551;BME280;74617;47.082;15.524;2024-01-30T02:06:41;98524.47;;;19.33;36.38
83551;BME280;74617;47.082;15.524;2024-01-30T02:09:07;98517.91;;;19.34;36.67
83551;BME280;74617;47.082;15.524;2024-01-30T02:11:34;98515.50;;;19.33;36.69
83551;BME280;74617;47.082;15.524;2024-01-30T02:14:03;98519.31;;;19.32;36.73
83551;BME280;74617;47.082;15.524;2024-01-30T02:16:29;98517.69;;;19.31;36.59
83551;BME280;74617;47.082;15.524;2024-01-30T02:18:55;98516.59;;;19.32;36.68
83551;BME280;74617;47.082;15.524;2024-01-30T02:21:20;98516.09;;;19.30;36.61
83551;BME280;74617;47.082;15.524;2024-01-30T02:23:49;98518.81;;;19.30;36.53
83551;BME280;74617;47.082;15.524;2024-01-30T02:26:15;98513.34;;;19.30;36.59
83551;BME280;74617;47.082;15.524;2024-01-30T02:28:41;98516.34;;;19.28;36.60
83551;BME280;74617;47.082;15.524;2024-01-30T02:31:06;98519.38;;;19.27;36.69
83551;BME280;74617;47.082;15.524;2024-01-30T02:33:32;98514.22;;;19.25;36.60
83551;BME280;74617;47.082;15.524;2024-01-30T02:35:57;98514.22;;;19.25;36.68
83551;BME280;74617;47.082;15.524;2024-01-30T02:38:22;98509.06;;;19.24;36.61
83551;BME280;74617;47.082;15.524;2024-01-30T02:40:52;98511.78;;;19.24;36.65
83551;BME280;74617;47.082;15.524;2024-01-30T02:43:17;98512.28;;;19.26;36.77
83551;BME280;74617;47.082;15.524;2024-01-30T02:45:43;98509.34;;;19.22;36.42
83551;BME280;74617;47.082;15.524;2024-01-30T02:48:08;98515.59;;;19.23;36.88
83551;BME280;74617;47.082;15.524;2024-01-30T02:50:34;98520.50;;;19.21;36.77
83551;BME280;74617;47.082;15.524;2024-01-30T02:52:59;98516.16;;;19.20;36.69
83551;BME280;74617;47.082;15.524;2024-01-30T02:55:24;98510.72;;;19.20;36.68
83551;BME280;74617;47.082;15.524;2024-01-30T02:57:50;98514.53;;;19.19;36.68
83551;BME280;74617;47.082;15.524;2024-01-30T03:00:15;98508.56;;;19.17;36.60
83551;BME280;74617;47.082;15.524;2024-01-30T03:02:41;98504.22;;;19.16;36.58
83551;BME280;74617;47.082;15.524;2024-01-30T03:05:07;98498.78;;;19.16;36.72
83551;BME280;74617;47.082;15.524;2024-01-30T03:07:33;98502.56;;;19.14;36.83
83551;BME280;74617;47.082;15.524;2024-01-30T03:09:59;98502.56;;;19.14;36.86
83551;BME280;74617;47.082;15.524;2024-01-30T03:12:24;98502.06;;;19.12;36.73
83551;BME280;74617;47.082;15.524;2024-01-30T03:14:49;98498.22;;;19.13;36.81
83551;BME280;74617;47.082;15.524;2024-01-30T03:17:15;98491.16;;;19.12;36.88
83551;BME280;74617;47.082;15.524;2024-01-30T03:19:40;98499.03;;;19.14;36.91
83551;BME280;74617;47.082;15.524;2024-01-30T03:22:06;98491.16;;;19.12;36.83
83551;BME280;74617;47.082;15.524;2024-01-30T03:24:31;98495.81;;;19.12;36.77
83551;BME280;74617;47.082;15.524;2024-01-30T03:26:57;98493.59;;;19.14;36.72
83551;BME280;74617;47.082;15.524;2024-01-30T03:29:22;98490.88;;;19.14;36.67
83551;BME280;74617;47.082;15.524;2024-01-30T03:31:47;98491.97;;;19.13;36.50
83551;BME280;74617;47.082;15.524;2024-01-30T03:34:13;98491.97;;;19.13;36.40
83551;BME280;74617;47.082;15.524;2024-01-30T03:36:38;98490.06;;;19.13;36.46
83551;BME280;74617;47.082;15.524;2024-01-30T03:39:04;98484.59;;;19.13;36.59
83551;BME280;74617;47.082;15.524;2024-01-30T03:41:29;98482.44;;;19.16;36.58
83551;BME280;74617;47.082;15.524;2024-01-30T03:43:55;98487.88;;;19.16;36.69
83551;BME280;74617;47.082;15.524;2024-01-30T03:46:20;98490.31;;;19.17;36.69
83551;BME280;74617;47.082;15.524;2024-01-30T03:48:46;98491.13;;;19.18;36.81
83551;BME280;74617;47.082;15.524;2024-01-30T03:51:11;98497.09;;;19.20;36.82
83551;BME280;74617;47.082;15.524;2024-01-30T03:53:40;98498.19;;;19.19;36.83
83551;BME280;74617;47.082;15.524;2024-01-30T03:56:06;98491.63;;;19.20;36.91
83551;BME280;74617;47.082;15.524;2024-01-30T03:58:32;98497.38;;;19.18;37.01
83551;BME280;74617;47.082;15.524;2024-01-30T04:00:57;98499.00;;;19.19;37.05
83551;BME280;74617;47.082;15.524;2024-01-30T04:03:23;98492.75;;;19.19;37.13
83551;BME280;74617;47.082;15.524;2024-01-30T04:05:48;98489.22;;;19.18;36.44
83551;BME280;74617;47.082;15.524;2024-01-30T04:08:13;98487.28;;;19.19;36.88
83551;BME280;74617;47.082;15.524;2024-01-30T04:10:40;98499.28;;;19.18;36.78
83551;BME280;74617;47.082;15.524;2024-01-30T04:13:05;98497.69;;;19.17;36.73
83551;BME280;74617;47.082;15.524;2024-01-30T04:15:31;98489.50;;;19.17;36.58
83551;BME280;74617;47.082;15.524;2024-01-30T04:17:59;98490.31;;;19.17;36.55
83551;BME280;74617;47.082;15.524;2024-01-30T04:20:24;98490.88;;;19.14;36.71
83551;BME280;74617;47.082;15.524;2024-01-30T04:22:50;98494.13;;;19.16;36.65
83551;BME280;74617;47.082;15.524;2024-01-30T04:25:16;98496.06;;;19.16;36.59
83551;BME280;74617;47.082;15.524;2024-01-30T04:27:41;98490.06;;;19.13;36.35
83551;BME280;74617;47.082;15.524;2024-01-30T04:30:07;98495.50;;;19.13;36.49
83551;BME280;74617;47.082;15.524;2024-01-30T04:32:33;98491.69;;;19.14;36.50
83551;BME280;74617;47.082;15.524;2024-01-30T04:34:58;98491.13;;;19.18;36.48
83551;BME280;74617;47.082;15.524;2024-01-30T04:37:24;98492.75;;;19.19;36.78
83551;BME280;74617;47.082;15.524;2024-01-30T04:39:49;98489.69;;;19.25;37.41
83551;BME280;74617;47.082;15.524;2024-01-30T04:42:15;98493.22;;;19.26;38.07
83551;BME280;74617;47.082;15.524;2024-01-30T04:44:40;98498.91;;;19.29;37.94
83551;BME280;74617;47.082;15.524;2024-01-30T04:47:05;98495.09;;;19.30;37.92
83551;BME280;74617;47.082;15.524;2024-01-30T04:49:34;98495.09;;;19.30;37.84
83551;BME280;74617;47.082;15.524;2024-01-30T04:51:59;98501.34;;;19.31;38.10
83551;BME280;74617;47.082;15.524;2024-01-30T04:54:25;98500.00;;;19.28;38.25
83551;BME280;74617;47.082;15.524;2024-01-30T04:56:51;98491.59;;;19.25;38.07
83551;BME280;74617;47.082;15.524;2024-01-30T04:59:16;98500.88;;;19.24;38.17
83551;BME280;74617;47.082;15.524;2024-01-30T05:01:41;98494.91;;;19.22;37.89
83551;BME280;74617;47.082;15.524;2024-01-30T05:04:08;98495.97;;;19.21;37.73
83551;BME280;74617;47.082;15.524;2024-01-30T05:06:33;98498.44;;;19.22;37.80
83551;BME280;74617;47.082;15.524;2024-01-30T05:08:59;98500.63;;;19.20;37.62
83551;BME280;74617;47.082;15.524;2024-01-30T05:11:24;98495.16;;;19.20;37.66
83551;BME280;74617;47.082;15.524;2024-01-30T05:13:50;98501.44;;;19.21;37.43
83551;BME280;74617;47.082;15.524;2024-01-30T05:16:15;98504.16;;;19.21;37.59
83551;BME280;74617;47.082;15.524;2024-01-30T05:18:40;98506.88;;;19.21;37.76
83551;BME280;74617;47.082;15.524;2024-01-30T05:21:06;98502.53;;;19.20;37.74
83551;BME280;74617;47.082;15.524;2024-01-30T05:23:31;98500.63;;;19.20;37.67
83551;BME280;74617;47.082;15.524;2024-01-30T05:25:57;98498.19;;;19.19;37.70
83551;BME280;74617;47.082;15.524;2024-01-30T05:28:22;98499.00;;;19.19;37.64
83551;BME280;74617;47.082;15.524;2024-01-30T05:30:47;98511.81;;;19.19;37.54
83551;BME280;74617;47.082;15.524;2024-01-30T05:33:13;98506.06;;;19.20;37.71
83551;BME280;74617;47.082;15.524;2024-01-30T05:35:38;98509.59;;;19.21;37.62
83551;BME280;74617;47.082;15.524;2024-01-30T05:38:04;98503.34;;;19.20;37.55
83551;BME280;74617;47.082;15.524;2024-01-30T05:40:30;98508.53;;;19.22;37.54
83551;BME280;74617;47.082;15.524;2024-01-30T05:42:56;98509.34;;;19.22;37.48
83551;BME280;74617;47.082;15.524;2024-01-30T05:45:23;98510.16;;;19.23;37.40
83551;BME280;74617;47.082;15.524;2024-01-30T05:47:48;98506.31;;;19.24;37.44
83551;BME280;74617;47.082;15.524;2024-01-30T05:50:14;98508.75;;;19.25;37.39
83551;BME280;74617;47.082;15.524;2024-01-30T05:52:40;98507.13;;;19.24;37.45
83551;BME280;74617;47.082;15.524;2024-01-30T05:55:05;98497.75;;;19.35;37.54
83551;BME280;74617;47.082;15.524;2024-01-30T05:57:31;98505.34;;;19.38;37.90
83551;BME280;74617;47.082;15.524;2024-01-30T05:59:56;98504.03;;;19.36;38.01
83551;BME280;74617;47.082;15.524;2024-01-30T06:02:21;98501.31;;;19.36;38.08
83551;BME280;74617;47.082;15.524;2024-01-30T06:04:47;98500.19;;;19.37;38.11
83551;BME280;74617;47.082;15.524;2024-01-30T06:07:12;98495.56;;;19.37;38.25
83551;BME280;74617;47.082;15.524;2024-01-30T06:09:38;98503.44;;;19.39;38.39
83551;BME280;74617;47.082;15.524;2024-01-30T06:12:05;98502.84;;;19.42;38.31
83551;BME280;74617;47.082;15.524;2024-01-30T06:14:30;98502.28;;;19.45;38.55
83551;BME280;74617;47.082;15.524;2024-01-30T06:16:56;98500.38;;;19.46;38.52
83551;BME280;74617;47.082;15.524;2024-01-30T06:19:21;98499.50;;;19.50;38.56
83551;BME280;74617;47.082;15.524;2024-01-30T06:21:46;98498.09;;;19.53;37.90
83551;BME280;74617;47.082;15.524;2024-01-30T06:24:12;98496.78;;;19.50;37.77
83551;BME280;74617;47.082;15.524;2024-01-30T06:26:37;98495.09;;;19.54;38.16
83551;BME280;74617;47.082;15.524;2024-01-30T06:29:03;98496.44;;;19.57;38.10
83551;BME280;74617;47.082;15.524;2024-01-30T06:31:28;98495.38;;;19.53;38.04
83551;BME280;74617;47.082;15.524;2024-01-30T06:33:53;98498.69;;;19.50;38.21
83551;BME280;74617;47.082;15.524;2024-01-30T06:36:19;98498.69;;;19.50;38.44
83551;BME280;74617;47.082;15.524;2024-01-30T06:38:44;98497.88;;;19.49;38.42
83551;BME280;74617;47.082;15.524;2024-01-30T06:41:09;98503.84;;;19.51;38.31
83551;BME280;74617;47.082;15.524;2024-01-30T06:43:35;98504.06;;;19.55;38.68
83551;BME280;74617;47.082;15.524;2024-01-30T06:46:00;98504.38;;;19.53;38.57
83551;BME280;74617;47.082;15.524;2024-01-30T06:48:25;98502.38;;;19.64;38.34
83551;BME280;74617;47.082;15.524;2024-01-30T06:50:54;98507.09;;;19.58;38.62
83551;BME280;74617;47.082;15.524;2024-01-30T06:53:19;98512.00;;;19.56;38.43
83551;BME280;74617;47.082;15.524;2024-01-30T06:55:45;98517.72;;;19.55;38.59
83551;BME280;74617;47.082;15.524;2024-01-30T06:58:10;98506.81;;;19.55;38.62
83551;BME280;74617;47.082;15.524;2024-01-30T07:00:36;98505.19;;;19.54;38.71
83551;BME280;74617;47.082;15.524;2024-01-30T07:03:01;98518.81;;;19.54;38.65
83551;BME280;74617;47.082;15.524;2024-01-30T07:05:27;98520.72;;;19.53;38.60
83551;BME280;74617;47.082;15.524;2024-01-30T07:07:52;98516.38;;;19.52;38.59
83551;BME280;74617;47.082;15.524;2024-01-30T07:10:17;98517.50;;;19.51;38.74
83551;BME280;74617;47.082;15.524;2024-01-30T07:12:43;98509.81;;;19.53;38.93
83551;BME280;74617;47.082;15.524;2024-01-30T07:15:08;98517.50;;;19.51;38.89
83551;BME280;74617;47.082;15.524;2024-01-30T07:17:35;98511.44;;;19.54;38.10
83551;BME280;74617;47.082;15.524;2024-01-30T07:20:01;98509.25;;;19.56;37.88
83551;BME280;74617;47.082;15.524;2024-01-30T07:22:29;98517.72;;;19.55;37.87
83551;BME280;74617;47.082;15.524;2024-01-30T07:24:54;98517.84;;;19.45;37.98
83551;BME280;74617;47.082;15.524;2024-01-30T07:27:20;98518.38;;;19.41;37.61
83551;BME280;74617;47.082;15.524;2024-01-30T07:29:46;98518.38;;;19.41;37.61
83551;BME280;74617;47.082;15.524;2024-01-30T07:32:12;98519.19;;;19.42;37.63
83551;BME280;74617;47.082;15.524;2024-01-30T07:34:37;98518.13;;;19.43;37.29
83551;BME280;74617;47.082;15.524;2024-01-30T07:37:03;98527.94;;;19.44;37.67
83551;BME280;74617;47.082;15.524;2024-01-30T07:39:28;98522.47;;;19.44;37.38
83551;BME280;74617;47.082;15.524;2024-01-30T07:41:53;98534.19;;;19.45;37.46
83551;BME280;74617;47.082;15.524;2024-01-30T07:44:19;98534.19;;;19.45;37.41
83551;BME280;74617;47.082;15.524;2024-01-30T07:46:44;98530.34;;;19.46;36.91
83551;BME280;74617;47.082;15.524;2024-01-30T07:49:09;98536.63;;;19.46;37.31
83551;BME280;74617;47.082;15.524;2024-01-30T07:51:35;98533.09;;;19.46;37.22
83551;BME280;74617;47.082;15.524;2024-01-30T07:54:00;98535.81;;;19.46;37.33
83551;BME280;74617;47.082;15.524;2024-01-30T07:56:26;98532.78;;;19.47;37.36
83551;BME280;74617;47.082;15.524;2024-01-30T07:58:51;98530.34;;;19.46;37.33
83551;BME280;74617;47.082;15.524;2024-01-30T08:01:17;98542.59;;;19.48;37.31
83551;BME280;74617;47.082;15.524;2024-01-30T08:03:42;98534.41;;;19.48;37.33
83551;BME280;74617;47.082;15.524;2024-01-30T08:06:07;98530.59;;;19.49;37.28
83551;BME280;74617;47.082;15.524;2024-01-30T08:08:33;98531.41;;;19.50;37.43
83551;BME280;74617;47.082;15.524;2024-01-30T08:10:58;98527.59;;;19.51;37.35
83551;BME280;74617;47.082;15.524;2024-01-30T08:13:23;98535.16;;;19.54;37.36
83551;BME280;74617;47.082;15.524;2024-01-30T08:15:49;98532.75;;;19.52;37.33
83551;BME280;74617;47.082;15.524;2024-01-30T08:18:14;98535.44;;;19.57;37.32
83551;BME280;74617;47.082;15.524;2024-01-30T08:20:39;98532.72;;;19.57;37.53
83551;BME280;74617;47.082;15.524;2024-01-30T08:23:05;98540.91;;;19.57;37.41
83551;BME280;74617;47.082;15.524;2024-01-30T08:25:30;98544.72;;;19.56;37.34
83551;BME280;74617;47.082;15.524;2024-01-30T08:27:55;98538.19;;;19.57;37.41
83551;BME280;74617;47.082;15.524;2024-01-30T08:30:22;98540.59;;;19.59;37.89
83551;BME280;74617;47.082;15.524;2024-01-30T08:32:47;98538.41;;;19.61;38.21
83551;BME280;74617;47.082;15.524;2024-01-30T08:35:13;98540.81;;;19.62;37.94
83551;BME280;74617;47.082;15.524;2024-01-30T08:37:40;98531.56;;;19.63;37.71
83551;BME280;74617;47.082;15.524;2024-01-30T08:40:07;98538.34;;;19.66;37.87
83551;BME280;74617;47.082;15.524;2024-01-30T08:42:36;98528.75;;;19.68;37.73
83551;BME280;74617;47.082;15.524;2024-01-30T08:45:01;98527.69;;;19.70;38.01
83551;BME280;74617;47.082;15.524;2024-01-30T08:47:26;98520.03;;;19.72;38.38
83551;BME280;74617;47.082;15.524;2024-01-30T08:49:52;98532.13;;;19.60;38.17
83551;BME280;74617;47.082;15.524;2024-01-30T08:52:17;98528.09;;;19.53;37.94
83551;BME280;74617;47.082;15.524;2024-01-30T08:54:43;98527.34;;;18.89;30.93
83551;BME280;74617;47.082;15.524;2024-01-30T08:57:08;98528.31;;;19.03;37.69
83551;BME280;74617;47.082;15.524;2024-01-30T08:59:34;98517.25;;;19.19;37.04
83551;BME280;74617;47.082;15.524;2024-01-30T09:01:59;98522.63;;;19.29;36.58
83551;BME280;74617;47.082;15.524;2024-01-30T09:04:25;98516.56;;;19.37;36.31
83551;BME280;74617;47.082;15.524;2024-01-30T09:06:50;98518.38;;;19.41;36.38
83551;BME280;74617;47.082;15.524;2024-01-30T09:09:16;98523.28;;;19.45;36.22
83551;BME280;74617;47.082;15.524;2024-01-30T09:11:42;98521.88;;;19.47;36.14
83551;BME280;74617;47.082;15.524;2024-01-30T09:14:08;98519.16;;;19.47;36.46
83551;BME280;74617;47.082;15.524;2024-01-30T09:16:34;98508.78;;;19.49;36.51
83551;BME280;74617;47.082;15.524;2024-01-30T09:18:59;98504.97;;;19.50;36.55
83551;BME280;74617;47.082;15.524;2024-01-30T09:21:24;98513.13;;;19.50;36.67
83551;BME280;74617;47.082;15.524;2024-01-30T09:23:51;98508.19;;;19.52;36.69
83551;BME280;74617;47.082;15.524;2024-01-30T09:26:17;98518.00;;;19.53;36.90
83551;BME280;74617;47.082;15.524;2024-01-30T09:28:42;98509.81;;;19.53;36.75
83551;BME280;74617;47.082;15.524;2024-01-30T09:31:11;98520.97;;;19.57;36.98
83551;BME280;74617;47.082;15.524;2024-01-30T09:33:37;98515.53;;;19.57;37.08
83551;BME280;74617;47.082;15.524;2024-01-30T09:36:03;98516.38;;;19.57;37.08
83551;BME280;74617;47.082;15.524;2024-01-30T09:38:29;98510.91;;;19.57;37.10
83551;BME280;74617;47.082;15.524;2024-01-30T09:40:54;98511.44;;;19.59;36.92
83551;BME280;74617;47.082;15.524;2024-01-30T09:43:22;98504.06;;;19.60;37.24
83551;BME280;74617;47.082;15.524;2024-01-30T09:45:50;98504.88;;;19.60;37.17
83551;BME280;74617;47.082;15.524;2024-01-30T09:48:16;98511.13;;;19.61;37.12
83551;BME280;74617;47.082;15.524;2024-01-30T09:50:41;98509.22;;;19.61;37.16
83551;BME280;74617;47.082;15.524;2024-01-30T09:53:11;98508.94;;;19.63;37.18
83551;BME280;74617;47.082;15.524;2024-01-30T09:55:36;98507.84;;;19.64;37.23
83551;BME280;74617;47.082;15.524;2024-01-30T09:58:02;98505.94;;;19.64;37.26
83551;BME280;74617;47.082;15.524;2024-01-30T10:00:27;98501.28;;;19.65;37.15
83551;BME280;74617;47.082;15.524;2024-01-30T10:02:53;98502.91;;;19.66;37.36
83551;BME280;74617;47.082;15.524;2024-01-30T10:05:19;98502.59;;;19.67;37.31
83551;BME280;74617;47.082;15.524;2024-01-30T10:07:54;98502.31;;;19.69;37.45
83551;BME280;74617;47.082;15.524;2024-01-30T10:10:22;98496.84;;;19.69;37.12
83551;BME280;74617;47.082;15.524;2024-01-30T10:12:48;98499.31;;;19.71;37.35
83551;BME280;74617;47.082;15.524;2024-01-30T10:15:14;98495.47;;;19.72;37.28
83551;BME280;74617;47.082;15.524;2024-01-30T10:17:39;98500.13;;;19.71;37.24
83551;BME280;74617;47.082;15.524;2024-01-30T10:20:05;98493.25;;;19.74;37.32
83551;BME280;74617;47.082;15.524;2024-01-30T10:22:31;98496.00;;;19.74;37.35
83551;BME280;74617;47.082;15.524;2024-01-30T10:24:56;98492.16;;;19.75;37.25
83551;BME280;74617;47.082;15.524;2024-01-30T10:27:28;98487.25;;;19.77;37.35
83551;BME280;74617;47.082;15.524;2024-01-30T10:29:55;98480.69;;;19.78;37.25
83551;BME280;74617;47.082;15.524;2024-01-30T10:32:20;98477.66;;;19.79;37.31
83551;BME280;74617;47.082;15.524;2024-01-30T10:34:46;98473.00;;;19.80;37.20
83551;BME280;74617;47.082;15.524;2024-01-30T10:37:12;98465.63;;;19.80;37.18
83551;BME280;74617;47.082;15.524;2024-01-30T10:39:41;98467.78;;;19.83;37.49
83551;BME280;74617;47.082;15.524;2024-01-30T10:42:13;98460.41;;;19.84;37.32
83551;BME280;74617;47.082;15.524;2024-01-30T10:47:27;98454.38;;;19.87;37.34
83551;BME280;74617;47.082;15.524;2024-01-30T10:49:56;98449.72;;;19.87;37.29
83551;BME280;74617;47.082;15.524;2024-01-30T10:52:25;98447.00;;;19.87;37.21
83551;BME280;74617;47.082;15.524;2024-01-30T10:54:51;98448.31;;;19.90;36.98
83551;BME280;74617;47.082;15.524;2024-01-30T10:57:18;98438.22;;;19.90;37.22
83551;BME280;74617;47.082;15.524;2024-01-30T10:59:43;98447.75;;;19.93;37.31
83551;BME280;74617;47.082;15.524;2024-01-30T11:02:10;98437.34;;;19.95;37.19
83551;BME280;74617;47.082;15.524;2024-01-30T11:04:45;98433.78;;;19.94;37.07
83551;BME280;74617;47.082;15.524;2024-01-30T11:07:18;98424.22;;;19.97;37.25
83551;BME280;74617;47.082;15.524;2024-01-30T11:09:54;98421.50;;;19.97;37.18
83551;BME280;74617;47.082;15.524;2024-01-30T11:12:33;98425.53;;;20.00;37.19
83551;BME280;74617;47.082;15.524;2024-01-30T11:22:46;98418.09;;;20.05;37.30
83551;BME280;74617;47.082;15.524;2024-01-30T11:25:16;98414.25;;;20.06;37.29
83551;BME280;74617;47.082;15.524;2024-01-30T11:27:43;98414.78;;;20.08;37.56
83551;BME280;74617;47.082;15.524;2024-01-30T11:30:09;98413.38;;;20.11;37.33
83551;BME280;74617;47.082;15.524;2024-01-30T11:32:35;98412.28;;;20.12;37.32
83551;BME280;74617;47.082;15.524;2024-01-30T11:35:03;98404.91;;;20.12;37.30
83551;BME280;74617;47.082;15.524;2024-01-30T11:37:30;98403.78;;;20.13;37.55
83551;BME280;74617;47.082;15.524;2024-01-30T11:39:56;98402.38;;;20.16;37.23
83551;BME280;74617;47.082;15.524;2024-01-30T11:42:23;98403.72;;;20.18;37.48
83551;BME280;74617;47.082;15.524;2024-01-30T11:44:51;98401.81;;;20.19;37.14
83551;BME280;74617;47.082;15.524;2024-01-30T11:47:17;98399.88;;;20.19;37.30
83551;BME280;74617;47.082;15.524;2024-01-30T11:49:43;98390.59;;;20.20;37.30
83551;BME280;74617;47.082;15.524;2024-01-30T11:52:09;98399.28;;;20.22;37.30
83551;BME280;74617;47.082;15.524;2024-01-30T11:54:35;98393.50;;;20.24;37.15
83551;BME280;74617;47.082;15.524;2024-01-30T11:57:00;98386.44;;;20.23;37.56
83551;BME280;74617;47.082;15.524;2024-01-30T11:59:25;98386.66;;;20.27;37.33
83551;BME280;74617;47.082;15.524;2024-01-30T12:01:52;98382.00;;;20.27;37.01
83551;BME280;74617;47.082;15.524;2024-01-30T12:04:17;98383.31;;;20.30;37.20
83551;BME280;74617;47.082;15.524;2024-01-30T12:06:43;98384.66;;;20.32;36.97
83551;BME280;74617;47.082;15.524;2024-01-30T12:09:09;98382.75;;;20.33;36.92
83551;BME280;74617;47.082;15.524;2024-01-30T12:11:44;98376.19;;;20.34;37.12
83551;BME280;74617;47.082;15.524;2024-01-30T12:14:11;98373.94;;;20.36;37.21
83551;BME280;74617;47.082;15.524;2024-01-30T12:16:36;98361.63;;;20.38;37.10
83551;BME280;74617;47.082;15.524;2024-01-30T12:19:02;98368.72;;;20.39;37.04
83551;BME280;74617;47.082;15.524;2024-01-30T12:21:28;98361.03;;;20.41;37.22
83551;BME280;74617;47.082;15.524;2024-01-30T12:23:54;98356.88;;;20.44;37.05
83551;BME280;74617;47.082;15.524;2024-01-30T12:26:19;98361.25;;;20.45;36.94
83551;BME280;74617;47.082;15.524;2024-01-30T12:28:49;98366.13;;;20.48;37.05
83551;BME280;74617;47.082;15.524;2024-01-30T12:31:17;98357.63;;;20.49;36.96
83551;BME280;74617;47.082;15.524;2024-01-30T12:33:42;98356.25;;;20.52;36.81
83551;BME280;74617;47.082;15.524;2024-01-30T12:36:08;98357.56;;;20.55;37.07
83551;BME280;74617;47.082;15.524;2024-01-30T12:38:33;98359.97;;;20.56;36.82
83551;BME280;74617;47.082;15.524;2024-01-30T12:40:59;98359.41;;;20.59;36.73
83551;BME280;74617;47.082;15.524;2024-01-30T12:43:25;98357.28;;;20.70;36.82
83551;BME280;74617;47.082;15.524;2024-01-30T12:45:50;98360.81;;;20.70;37.54
83551;BME280;74617;47.082;15.524;2024-01-30T12:48:17;98354.84;;;20.68;37.72
83551;BME280;74617;47.082;15.524;2024-01-30T12:50:42;98343.94;;;20.68;37.52
83551;BME280;74617;47.082;15.524;2024-01-30T12:53:08;98338.47;;;20.68;37.65